Time;durP1;ratioP1;P1;durP2;ratioP2;P2;SDS_P1;SDS_P2;PMS_P1;PMS_P2;Temp;Humidity;BMP_temperature;BMP_pressure;BME280_temperature;BME280_humidity;BME280_pressure;Samples;Min_cycle;Max_cycle;Signal;HPM_P1;HPM_P2
2021/06/30 00:01:26;;;;;;;9.20;3.50;;;25.00;56.30;;;;;;5046657;28;20052;-80
2021/06/30 00:03:51;;;;;;;9.63;2.67;;;25.00;56.40;;;;;;5045132;28;20025;-81
2021/06/30 00:06:18;;;;;;;8.70;3.15;;;25.00;56.60;;;;;;5045352;28;20133;-81
2021/06/30 00:08:45;;;;;;;6.88;3.22;;;25.00;56.50;;;;;;5046387;28;20025;-80
2021/06/30 00:11:12;;;;;;;6.25;3.20;;;25.00;56.70;;;;;;5029084;28;20091;-82
2021/06/30 00:13:38;;;;;;;5.13;3.38;;;25.00;56.70;;;;;;5028905;28;20031;-81
2021/06/30 00:16:04;;;;;;;5.65;3.08;;;25.00;56.80;;;;;;5028278;28;20033;-80
2021/06/30 00:18:30;;;;;;;7.00;2.90;;;25.00;56.70;;;;;;5028703;28;20029;-80
2021/06/30 00:20:56;;;;;;;9.57;2.80;;;24.90;56.60;;;;;;5046748;28;20028;-79
2021/06/30 00:23:23;;;;;;;6.32;2.90;;;24.90;56.90;;;;;;5028857;28;20021;-81
2021/06/30 00:25:49;;;;;;;7.80;3.47;;;25.00;56.80;;;;;;5028539;28;20068;-81
2021/06/30 00:28:15;;;;;;;6.05;3.47;;;25.00;56.90;;;;;;5046724;28;20033;-81
2021/06/30 00:30:40;;;;;;;10.50;3.83;;;25.00;57.20;;;;;;5028310;28;20037;-81
2021/06/30 00:33:06;;;;;;;6.53;3.45;;;25.00;57.50;;;;;;5046179;28;20047;-82
2021/06/30 00:35:32;;;;;;;7.10;3.83;;;25.00;57.50;;;;;;5046925;28;20028;-80
2021/06/30 00:37:58;;;;;;;10.00;3.35;;;25.00;57.50;;;;;;5046901;28;20029;-83
2021/06/30 00:40:24;;;;;;;8.50;5.10;;;25.00;57.80;;;;;;5028527;28;20039;-79
2021/06/30 00:42:50;;;;;;;6.88;3.90;;;24.90;58.60;;;;;;5031115;28;20029;-79
2021/06/30 00:45:18;;;;;;;11.98;3.67;;;24.90;58.20;;;;;;5032257;28;20018;-80
2021/06/30 00:47:44;;;;;;;8.85;3.88;;;24.90;58.30;;;;;;5031050;28;20029;-80
2021/06/30 00:50:10;;;;;;;6.03;3.78;;;24.90;58.50;;;;;;5031629;28;20449;-79
2021/06/30 00:52:36;;;;;;;5.93;3.72;;;24.90;58.40;;;;;;5031439;28;20029;-79
2021/06/30 00:55:02;;;;;;;10.10;3.63;;;24.90;58.60;;;;;;5049481;28;20028;-80
2021/06/30 00:57:28;;;;;;;6.85;4.13;;;24.90;58.70;;;;;;5049286;28;20033;-80
2021/06/30 00:59:55;;;;;;;15.80;3.92;;;24.90;58.70;;;;;;5049827;28;20017;-80
2021/06/30 01:02:21;;;;;;;7.75;4.13;;;24.90;58.70;;;;;;5030978;28;20040;-79
2021/06/30 01:04:47;;;;;;;5.88;3.47;;;25.00;58.90;;;;;;5031339;28;20025;-80
2021/06/30 01:07:13;;;;;;;6.47;3.65;;;24.90;58.50;;;;;;5048062;28;20067;-79
2021/06/30 01:09:38;;;;;;;5.97;3.42;;;24.90;58.40;;;;;;5048222;28;20498;-82
2021/06/30 01:12:04;;;;;;;6.68;3.72;;;24.90;59.00;;;;;;5032925;28;20040;-83
2021/06/30 01:14:33;;;;;;;11.15;3.53;;;24.90;59.50;;;;;;5050300;28;20029;-81
2021/06/30 01:17:01;;;;;;;6.07;4.28;;;24.80;59.40;;;;;;5032029;28;20167;-83
2021/06/30 01:19:27;;;;;;;5.70;3.88;;;24.70;59.60;;;;;;5050179;28;20078;-80
2021/06/30 01:21:54;;;;;;;15.95;5.13;;;24.70;60.00;;;;;;5031179;28;20405;-80
2021/06/30 01:24:21;;;;;;;4.75;3.72;;;24.60;60.70;;;;;;5031636;28;20102;-80
2021/06/30 01:26:48;;;;;;;9.98;4.03;;;24.60;60.60;;;;;;5031380;28;20083;-81
2021/06/30 01:29:15;;;;;;;5.55;3.63;;;24.60;60.20;;;;;;5047490;28;20500;-80
2021/06/30 01:31:40;;;;;;;7.85;3.50;;;24.70;59.90;;;;;;5029866;28;20061;-80
2021/06/30 01:34:06;;;;;;;13.23;4.07;;;24.70;59.80;;;;;;5048576;28;20058;-78
2021/06/30 01:36:46;;;;;;;8.00;4.18;;;24.70;59.70;;;;;;5030302;28;20516;-79
2021/06/30 01:39:12;;;;;;;8.15;4.07;;;24.70;60.30;;;;;;5048754;28;20028;-79
2021/06/30 01:41:39;;;;;;;18.15;4.20;;;24.60;60.40;;;;;;5048944;28;20055;-83
2021/06/30 01:44:05;;;;;;;6.95;3.30;;;24.60;60.40;;;;;;5031400;28;20033;-82
2021/06/30 01:46:31;;;;;;;12.40;3.70;;;24.60;60.40;;;;;;5047651;28;20045;-81
2021/06/30 01:48:57;;;;;;;11.30;4.63;;;24.60;60.50;;;;;;5031145;28;20432;-83
2021/06/30 01:51:22;;;;;;;9.70;3.70;;;24.60;60.40;;;;;;5049118;28;20503;-82
2021/06/30 01:53:48;;;;;;;7.35;3.30;;;24.60;60.40;;;;;;5030653;28;20548;-82
2021/06/30 01:56:14;;;;;;;5.22;3.65;;;24.60;60.50;;;;;;5048678;28;20501;-80
2021/06/30 01:58:39;;;;;;;10.30;4.38;;;24.50;60.70;;;;;;5030820;28;20409;-83
2021/06/30 02:01:05;;;;;;;7.43;3.40;;;24.50;61.20;;;;;;5030947;28;20405;-81
2021/06/30 02:03:31;;;;;;;5.57;3.75;;;24.40;61.90;;;;;;5030908;28;20545;-82
2021/06/30 02:05:56;;;;;;;11.13;3.90;;;24.40;62.50;;;;;;5030736;28;20485;-82
2021/06/30 02:08:22;;;;;;;5.57;4.25;;;24.30;63.00;;;;;;5030723;28;20053;-82
2021/06/30 02:10:48;;;;;;;8.85;4.15;;;24.20;63.40;;;;;;5048034;28;20029;-81
2021/06/30 02:13:14;;;;;;;4.85;3.33;;;24.10;63.70;;;;;;5030748;28;20021;-81
2021/06/30 02:15:41;;;;;;;6.00;4.43;;;24.00;64.20;;;;;;5048423;28;20021;-81
2021/06/30 02:18:08;;;;;;;8.20;3.88;;;24.00;64.40;;;;;;5048295;28;20037;-82
2021/06/30 02:20:33;;;;;;;9.50;3.88;;;24.00;65.20;;;;;;5030555;28;20082;-81
2021/06/30 02:22:59;;;;;;;5.22;3.88;;;23.90;65.10;;;;;;5047986;28;20029;-79
2021/06/30 02:25:28;;;;;;;7.65;4.43;;;23.90;65.20;;;;;;5029874;28;20029;-80
2021/06/30 02:27:54;;;;;;;7.35;4.10;;;23.80;65.40;;;;;;5030208;28;20398;-80
2021/06/30 02:30:30;;;;;;;6.35;3.63;;;23.70;66.30;;;;;;5048191;28;20044;-82
2021/06/30 02:32:57;;;;;;;7.97;3.80;;;23.60;67.60;;;;;;5029887;28;20049;-80
2021/06/30 02:35:24;;;;;;;11.10;4.90;;;23.50;68.10;;;;;;5048497;28;20024;-81
2021/06/30 02:37:53;;;;;;;6.55;4.25;;;23.40;69.00;;;;;;5048362;28;20222;-79
2021/06/30 02:40:23;;;;;;;6.78;4.22;;;23.30;69.60;;;;;;5047499;28;20024;-80
2021/06/30 02:42:49;;;;;;;6.68;4.20;;;23.30;69.60;;;;;;5029721;28;20024;-79
2021/06/30 02:45:17;;;;;;;15.68;4.32;;;23.30;69.30;;;;;;5048177;28;20021;-81
2021/06/30 02:47:45;;;;;;;5.68;3.95;;;23.20;69.50;;;;;;5029316;28;20519;-79
2021/06/30 02:50:12;;;;;;;10.02;4.47;;;23.30;69.70;;;;;;5029788;28;20051;-80
2021/06/30 02:52:39;;;;;;;12.48;4.30;;;23.20;69.90;;;;;;5029787;28;20545;-78
2021/06/30 02:55:06;;;;;;;7.40;4.15;;;23.10;69.50;;;;;;5029719;28;20614;-81
2021/06/30 02:57:32;;;;;;;7.18;3.60;;;23.10;69.60;;;;;;5029402;28;20025;-80
2021/06/30 02:59:58;;;;;;;8.30;3.15;;;23.00;69.60;;;;;;5029281;28;20036;-81
2021/06/30 03:02:23;;;;;;;7.38;3.58;;;22.90;69.60;;;;;;5029388;28;20017;-80
2021/06/30 03:04:49;;;;;;;7.38;3.80;;;22.90;69.50;;;;;;5029475;28;20025;-80
2021/06/30 03:07:15;;;;;;;6.22;3.83;;;22.90;69.50;;;;;;5029289;28;20048;-80
2021/06/30 03:09:40;;;;;;;13.88;3.90;;;22.90;70.10;;;;;;5046480;28;20036;-82
2021/06/30 03:12:06;;;;;;;3.78;2.95;;;22.90;69.60;;;;;;5029753;28;20039;-81
2021/06/30 03:14:32;;;;;;;10.75;3.92;;;22.90;69.70;;;;;;5029551;28;20025;-79
2021/06/30 03:16:57;;;;;;;6.88;3.50;;;22.90;70.00;;;;;;5045047;28;20031;-78
2021/06/30 03:19:23;;;;;;;8.15;3.88;;;22.90;70.10;;;;;;5045766;28;20028;-79
2021/06/30 03:21:49;;;;;;;11.10;4.63;;;22.90;70.30;;;;;;5047473;28;20025;-82
2021/06/30 03:24:15;;;;;;;10.60;4.10;;;22.90;70.20;;;;;;5047059;28;20132;-80
2021/06/30 03:26:41;;;;;;;8.57;4.70;;;23.00;70.40;;;;;;5047086;28;20079;-79
2021/06/30 03:29:06;;;;;;;12.38;4.28;;;23.00;70.60;;;;;;5045814;28;20511;-80
2021/06/30 03:31:32;;;;;;;8.85;3.97;;;23.00;70.60;;;;;;5028416;28;20033;-81
2021/06/30 03:33:59;;;;;;;8.80;4.10;;;23.00;70.70;;;;;;5029512;28;20025;-82
2021/06/30 03:36:24;;;;;;;6.90;4.68;;;23.00;71.30;;;;;;5046173;28;20031;-81
2021/06/30 03:38:50;;;;;;;9.50;4.15;;;23.00;70.90;;;;;;5046078;28;20057;-81
2021/06/30 03:41:16;;;;;;;8.18;4.40;;;23.00;70.90;;;;;;5029210;28;20029;-81
2021/06/30 03:43:41;;;;;;;9.25;4.28;;;23.00;71.00;;;;;;5046656;28;20457;-81
2021/06/30 03:46:11;;;;;;;10.93;4.30;;;23.00;71.20;;;;;;5046463;28;20086;-80
2021/06/30 03:48:37;;;;;;;16.75;5.20;;;23.10;71.10;;;;;;5029323;28;20041;-82
2021/06/30 03:51:03;;;;;;;7.07;4.57;;;23.10;70.90;;;;;;5029115;28;20047;-81
2021/06/30 03:53:29;;;;;;;8.10;4.57;;;23.10;71.00;;;;;;5046955;28;20450;-81
2021/06/30 03:55:55;;;;;;;10.48;4.93;;;23.20;71.10;;;;;;5046402;28;20029;-80
2021/06/30 03:58:20;;;;;;;7.97;4.35;;;23.20;71.30;;;;;;5046868;28;20025;-80
2021/06/30 04:00:46;;;;;;;8.02;4.20;;;23.30;71.40;;;;;;5028473;28;20059;-81
2021/06/30 04:03:12;;;;;;;13.30;4.43;;;23.40;71.30;;;;;;5028610;28;20025;-82
2021/06/30 04:05:38;;;;;;;14.90;5.95;;;23.40;71.20;;;;;;5029059;28;20076;-81
2021/06/30 04:08:09;;;;;;;14.32;5.40;;;23.60;71.20;;;;;;5029059;28;20033;-79
2021/06/30 04:10:35;;;;;;;13.32;4.78;;;23.70;71.00;;;;;;5028357;28;20052;-82
2021/06/30 04:13:01;;;;;;;8.68;4.50;;;23.80;70.60;;;;;;5046854;28;20056;-81
2021/06/30 04:15:27;;;;;;;11.77;4.43;;;23.90;70.10;;;;;;5028580;28;20506;-81
2021/06/30 04:17:53;;;;;;;8.60;4.15;;;24.00;69.70;;;;;;5032111;28;20057;-81
2021/06/30 04:20:18;;;;;;;16.25;4.40;;;24.20;69.40;;;;;;5032836;28;20035;-81
2021/06/30 04:22:44;;;;;;;32.42;4.90;;;24.40;69.50;;;;;;5032501;28;20029;-81
2021/06/30 04:25:10;;;;;;;12.93;5.38;;;24.50;69.10;;;;;;5049478;28;20025;-82
2021/06/30 04:27:36;;;;;;;5.85;4.25;;;24.70;68.40;;;;;;5050316;28;20028;-81
2021/06/30 04:30:06;;;;;;;4.90;4.38;;;24.80;68.00;;;;;;5031767;28;20076;-81
2021/06/30 04:32:32;;;;;;;17.00;4.70;;;24.80;68.00;;;;;;5049904;28;20059;-79
2021/06/30 04:34:58;;;;;;;8.27;4.60;;;25.00;68.00;;;;;;5049876;28;20103;-79
2021/06/30 04:37:23;;;;;;;13.23;5.10;;;25.10;67.30;;;;;;5049798;28;20393;-80
2021/06/30 04:39:49;;;;;;;9.57;4.00;;;25.30;67.10;;;;;;5035021;28;20132;-78
2021/06/30 04:42:15;;;;;;;11.70;4.05;;;25.40;66.90;;;;;;5051624;28;20024;-78
2021/06/30 04:44:40;;;;;;;17.27;4.43;;;25.60;66.30;;;;;;5069383;28;20066;-81
2021/06/30 04:47:06;;;;;;;21.35;4.75;;;25.70;65.60;;;;;;5051386;28;20039;-78
2021/06/30 04:49:32;;;;;;;8.18;4.18;;;25.90;65.70;;;;;;5051413;28;20031;-79
2021/06/30 04:51:57;;;;;;;9.65;4.95;;;26.00;65.50;;;;;;5051382;28;20020;-78
2021/06/30 04:54:23;;;;;;;11.25;4.57;;;26.20;66.40;;;;;;5068795;28;20556;-79
2021/06/30 04:56:49;;;;;;;9.18;4.88;;;26.20;65.70;;;;;;5051381;28;20632;-78
2021/06/30 04:59:14;;;;;;;16.42;4.55;;;26.30;65.10;;;;;;5068501;28;20032;-77
2021/06/30 05:01:40;;;;;;;7.03;4.40;;;26.40;64.10;;;;;;5069274;28;20055;-77
2021/06/30 05:04:06;;;;;;;7.68;3.70;;;26.50;64.00;;;;;;5068979;28;20086;-79
2021/06/30 05:06:34;;;;;;;5.72;3.22;;;26.70;62.50;;;;;;5051137;28;20131;-79
2021/06/30 05:08:59;;;;;;;8.32;4.13;;;26.80;62.00;;;;;;5050793;28;20021;-79
2021/06/30 05:11:25;;;;;;;9.48;4.00;;;26.90;62.00;;;;;;5068446;28;20198;-79
2021/06/30 05:13:50;;;;;;;11.07;4.53;;;27.10;62.00;;;;;;5050520;28;20020;-79
2021/06/30 05:16:16;;;;;;;10.52;3.65;;;27.20;61.00;;;;;;5063006;28;20481;-78
2021/06/30 05:18:42;;;;;;;6.40;3.80;;;27.30;60.30;;;;;;5047397;28;20024;-79
2021/06/30 05:21:07;;;;;;;7.32;4.40;;;27.40;60.10;;;;;;5049164;28;20067;-79
2021/06/30 05:23:33;;;;;;;13.73;3.60;;;27.40;60.10;;;;;;5049882;28;20029;-79
2021/06/30 05:25:59;;;;;;;10.90;3.88;;;27.40;60.10;;;;;;5049884;28;20122;-79
2021/06/30 05:28:24;;;;;;;4.97;3.80;;;27.60;58.30;;;;;;5067535;28;20500;-79
2021/06/30 05:30:50;;;;;;;17.83;4.55;;;27.60;58.00;;;;;;5050045;28;20040;-79
2021/06/30 05:33:16;;;;;;;10.60;4.22;;;27.80;58.30;;;;;;5050749;28;20505;-79
2021/06/30 05:35:42;;;;;;;8.63;4.00;;;27.90;57.90;;;;;;5068627;28;20087;-78
2021/06/30 05:38:07;;;;;;;9.40;4.15;;;27.90;57.60;;;;;;5068187;28;20497;-78
2021/06/30 05:40:33;;;;;;;12.77;4.55;;;28.00;57.20;;;;;;5068177;28;20078;-79
2021/06/30 05:42:59;;;;;;;11.43;3.80;;;28.30;56.30;;;;;;5047690;28;20497;-79
2021/06/30 05:45:24;;;;;;;8.10;3.83;;;28.50;55.70;;;;;;5048193;28;20029;-79
2021/06/30 05:47:50;;;;;;;8.38;3.42;;;28.80;54.90;;;;;;5043196;28;20037;-79
2021/06/30 05:50:20;;;;;;;15.82;4.72;;;29.20;54.40;;;;;;5048930;28;20041;-79
2021/06/30 05:52:46;;;;;;;10.07;4.78;;;29.60;52.40;;;;;;5067988;28;20492;-79
2021/06/30 05:55:12;;;;;;;7.78;3.45;;;30.10;50.90;;;;;;5068232;28;20051;-80
2021/06/30 05:57:38;;;;;;;11.20;4.05;;;30.50;50.10;;;;;;5050176;28;20025;-79
2021/06/30 06:00:15;;;;;;;20.95;4.00;;;31.00;48.80;;;;;;5049849;28;20556;-79
2021/06/30 06:02:41;;;;;;;10.40;3.28;;;32.10;46.40;;;;;;5049872;28;20063;-79
2021/06/30 06:05:07;;;;;;;9.45;3.88;;;33.40;42.90;;;;;;5068132;28;20063;-79
2021/06/30 06:07:33;;;;;;;10.52;3.92;;;34.40;40.90;;;;;;5067840;28;20033;-80
2021/06/30 06:09:59;;;;;;;12.07;3.60;;;35.30;38.60;;;;;;5067802;28;20375;-80
2021/06/30 06:12:26;;;;;;;7.20;3.50;;;35.90;37.30;;;;;;5049810;28;20500;-79
2021/06/30 06:14:52;;;;;;;9.52;3.42;;;36.90;35.30;;;;;;5067570;28;20178;-78
2021/06/30 06:17:17;;;;;;;10.98;3.70;;;37.40;34.00;;;;;;5049946;28;20024;-79
2021/06/30 06:19:43;;;;;;;9.30;3.78;;;38.00;33.60;;;;;;5049162;28;20523;-79
2021/06/30 06:22:09;;;;;;;13.52;3.53;;;38.40;33.10;;;;;;5049808;28;20033;-79
2021/06/30 06:24:34;;;;;;;13.70;4.00;;;39.00;32.00;;;;;;5049770;28;20021;-79
2021/06/30 06:27:00;;;;;;;9.35;3.00;;;39.20;31.70;;;;;;5067541;28;20047;-80
2021/06/30 06:29:27;;;;;;;9.93;3.90;;;39.20;32.10;;;;;;5049226;28;20025;-79
2021/06/30 06:31:53;;;;;;;11.38;3.60;;;39.40;31.40;;;;;;5049078;28;20080;-80
2021/06/30 06:34:22;;;;;;;13.55;3.70;;;39.60;31.10;;;;;;5049360;28;20044;-80
2021/06/30 06:36:49;;;;;;;10.20;3.45;;;39.80;30.50;;;;;;5049479;28;20040;-79
2021/06/30 06:39:16;;;;;;;6.85;3.95;;;40.40;29.80;;;;;;5049085;28;20754;-80
2021/06/30 06:41:42;;;;;;;11.93;4.65;;;40.20;30.00;;;;;;5066881;28;20036;-79
2021/06/30 06:44:08;;;;;;;8.75;3.65;;;40.00;29.80;;;;;;5048618;28;20412;-79
2021/06/30 06:46:35;;;;;;;16.90;4.22;;;40.10;30.10;;;;;;5067223;28;20036;-79
2021/06/30 06:49:00;;;;;;;10.48;3.72;;;40.40;30.00;;;;;;5049322;28;20036;-80
2021/06/30 06:51:26;;;;;;;10.43;3.88;;;40.50;30.00;;;;;;5066649;28;20036;-80
2021/06/30 06:53:52;;;;;;;14.30;4.20;;;40.10;30.00;;;;;;5067303;28;20131;-79
2021/06/30 06:56:25;;;;;;;10.55;4.13;;;39.90;31.30;;;;;;5066814;28;20024;-78
2021/06/30 06:58:52;;;;;;;15.25;3.10;;;40.00;30.20;;;;;;5048622;28;20028;-79
2021/06/30 07:01:17;;;;;;;11.45;4.45;;;40.60;29.90;;;;;;5048795;28;20519;-80
2021/06/30 07:03:43;;;;;;;14.25;4.20;;;40.90;29.70;;;;;;5048954;28;20035;-79
2021/06/30 07:06:09;;;;;;;15.25;3.88;;;41.30;29.20;;;;;;5066743;28;20029;-79
2021/06/30 07:08:34;;;;;;;8.48;3.70;;;41.20;29.10;;;;;;5048810;28;20441;-81
2021/06/30 07:11:00;;;;;;;16.02;4.28;;;41.10;29.20;;;;;;5048694;28;20570;-80
2021/06/30 07:13:26;;;;;;;11.55;4.85;;;40.80;29.90;;;;;;5048453;28;20032;-80
2021/06/30 07:15:52;;;;;;;7.93;3.95;;;40.80;30.10;;;;;;5048507;28;20067;-80
2021/06/30 07:18:18;;;;;;;6.97;3.75;;;40.80;30.20;;;;;;5066797;28;20028;-80
2021/06/30 07:20:44;;;;;;;8.88;3.92;;;40.30;30.90;;;;;;5048873;28;20028;-80
2021/06/30 07:23:11;;;;;;;9.05;3.97;;;39.50;31.60;;;;;;5048522;28;20035;-78
2021/06/30 07:25:38;;;;;;;11.18;3.60;;;38.70;32.70;;;;;;5048629;28;20404;-78
2021/06/30 07:28:04;;;;;;;9.75;3.72;;;37.80;34.40;;;;;;5066145;28;20028;-79
2021/06/30 07:30:30;;;;;;;18.83;3.70;;;36.90;36.40;;;;;;5048492;28;20519;-79
2021/06/30 07:32:56;;;;;;;10.25;3.28;;;36.10;38.00;;;;;;5066316;28;20048;-79
2021/06/30 07:35:22;;;;;;;10.13;3.35;;;35.30;39.20;;;;;;5066521;28;20082;-80
2021/06/30 07:37:48;;;;;;;12.68;3.40;;;35.00;40.10;;;;;;5066421;28;20032;-78
2021/06/30 07:40:14;;;;;;;14.90;3.13;;;35.20;39.90;;;;;;5066064;28;20021;-80
2021/06/30 07:42:40;;;;;;;7.53;2.40;;;35.00;40.40;;;;;;5047915;28;20596;-78
2021/06/30 07:45:06;;;;;;;9.70;2.45;;;35.00;40.40;;;;;;5048452;28;20060;-79
2021/06/30 07:47:32;;;;;;;14.27;2.70;;;34.80;40.30;;;;;;5048188;28;20064;-79
2021/06/30 07:49:58;;;;;;;7.70;2.13;;;34.30;41.30;;;;;;5066385;28;20572;-79
2021/06/30 07:52:23;;;;;;;16.02;2.75;;;34.00;41.80;;;;;;5065413;28;20946;-79
2021/06/30 07:54:49;;;;;;;9.70;2.40;;;33.80;43.00;;;;;;5066326;28;20610;-79
2021/06/30 07:57:15;;;;;;;11.82;2.58;;;33.90;42.70;;;;;;5047892;28;20036;-79
2021/06/30 07:59:40;;;;;;;10.00;2.45;;;33.90;43.20;;;;;;5066062;28;20487;-78
2021/06/30 08:02:06;;;;;;;15.20;2.45;;;33.60;44.60;;;;;;5045807;28;20037;-79
2021/06/30 08:04:32;;;;;;;25.33;2.80;;;33.60;44.30;;;;;;5043932;28;20079;-78
2021/06/30 08:06:58;;;;;;;13.15;2.55;;;33.60;44.40;;;;;;5046333;28;20044;-79
2021/06/30 08:09:23;;;;;;;12.68;2.50;;;33.40;44.80;;;;;;5044413;28;20025;-78
2021/06/30 08:11:49;;;;;;;12.68;2.28;;;33.30;44.90;;;;;;5046127;28;20115;-79
2021/06/30 08:14:15;;;;;;;6.88;2.20;;;33.50;44.90;;;;;;5044357;28;20040;-79
2021/06/30 08:16:40;;;;;;;12.70;2.83;;;33.70;44.60;;;;;;5044488;28;20815;-78
2021/06/30 08:19:08;;;;;;;8.32;3.20;;;34.00;44.50;;;;;;5044715;28;20441;-79
2021/06/30 08:21:35;;;;;;;11.77;3.08;;;34.10;43.60;;;;;;5050935;28;20024;-79
2021/06/30 08:24:00;;;;;;;15.55;2.88;;;34.20;43.30;;;;;;5060453;28;20890;-79
2021/06/30 08:26:26;;;;;;;5.63;2.67;;;34.30;43.30;;;;;;5048142;28;20039;-85
2021/06/30 08:28:52;;;;;;;17.25;3.15;;;34.40;43.40;;;;;;5046768;28;20028;-79
2021/06/30 08:31:17;;;;;;;11.25;2.70;;;34.50;42.70;;;;;;5065108;28;20036;-80
2021/06/30 08:33:43;;;;;;;30.95;3.78;;;34.70;42.70;;;;;;5065950;28;20064;-79
2021/06/30 08:36:09;;;;;;;15.98;3.20;;;34.80;41.70;;;;;;5044807;28;20021;-80
2021/06/30 08:38:34;;;;;;;15.13;3.03;;;34.60;41.90;;;;;;5040930;28;20476;-79
2021/06/30 08:41:02;;;;;;;9.60;2.67;;;34.30;42.90;;;;;;5040816;28;20876;-81
2021/06/30 08:43:28;;;;;;;20.55;3.20;;;34.10;43.50;;;;;;5041094;28;20145;-80
2021/06/30 08:45:54;;;;;;;7.25;3.05;;;34.20;43.40;;;;;;5041407;28;20497;-81
2021/06/30 08:48:20;;;;;;;29.70;4.28;;;34.70;42.90;;;;;;5042701;28;20128;-80
2021/06/30 08:50:47;;;;;;;10.65;2.78;;;35.40;42.50;;;;;;5042491;28;20592;-80
2021/06/30 08:53:14;;;;;;;14.10;2.47;;;36.10;41.00;;;;;;5043352;28;20035;-80
2021/06/30 08:55:44;;;;;;;20.05;2.70;;;36.80;39.40;;;;;;5042727;28;20156;-79
2021/06/30 08:58:12;;;;;;;14.80;2.70;;;37.10;38.20;;;;;;5040186;28;20028;-80
2021/06/30 09:00:40;;;;;;;19.67;2.35;;;37.20;37.70;;;;;;5053854;28;20050;-81
2021/06/30 09:03:08;;;;;;;14.93;3.30;;;37.10;37.40;;;;;;5026349;28;20523;-79
2021/06/30 09:08:00;;;;;;;12.20;2.00;;;37.60;36.70;;;;;;5058807;28;20174;-79
2021/06/30 09:10:36;;;;;;;8.05;2.05;;;37.30;37.00;;;;;;5048091;28;20021;-80
2021/06/30 09:13:03;;;;;;;12.40;2.05;;;37.30;37.50;;;;;;5063924;28;20423;-81
2021/06/30 09:15:33;;;;;;;13.05;2.17;;;37.60;38.00;;;;;;5037141;28;20025;-80
2021/06/30 09:18:27;;;;;;;13.15;2.38;;;37.90;37.50;;;;;;5058229;28;20063;-80
2021/06/30 09:21:21;;;;;;;20.80;2.33;;;38.70;37.20;;;;;;5047532;28;20032;-79
2021/06/30 09:23:58;;;;;;;11.88;1.90;;;38.70;36.40;;;;;;5054055;28;20041;-80
2021/06/30 09:26:24;;;;;;;10.57;1.80;;;38.70;36.00;;;;;;5046700;28;20094;-80
2021/06/30 09:29:00;;;;;;;14.25;1.60;;;38.60;35.30;;;;;;5065296;28;20162;-80
2021/06/30 09:31:26;;;;;;;12.65;1.52;;;37.90;36.00;;;;;;5045854;28;20124;-79
2021/06/30 09:33:53;;;;;;;15.77;1.83;;;37.10;37.30;;;;;;5046529;28;20068;-79
2021/06/30 09:36:20;;;;;;;8.02;1.90;;;36.70;37.20;;;;;;5065565;28;20029;-79
2021/06/30 09:38:46;;;;;;;6.50;1.48;;;36.70;38.00;;;;;;5047184;28;20040;-80
2021/06/30 09:41:29;;;;;;;8.00;1.83;;;36.70;38.20;;;;;;5066684;28;20036;-80
2021/06/30 09:44:18;;;;;;;15.77;1.80;;;37.20;37.40;;;;;;5044424;28;20028;-79
2021/06/30 09:46:46;;;;;;;4.75;1.42;;;37.20;36.80;;;;;;5048583;28;20036;-78
2021/06/30 09:49:14;;;;;;;10.10;1.88;;;36.70;37.90;;;;;;5067193;28;20028;-80
2021/06/30 09:51:41;;;;;;;10.50;1.67;;;36.10;37.10;;;;;;5048729;28;20056;-80
2021/06/30 09:54:07;;;;;;;11.70;1.55;;;35.60;37.30;;;;;;5057623;28;20551;-80
2021/06/30 09:56:40;;;;;;;4.80;1.52;;;35.50;38.60;;;;;;5047681;28;20033;-79
2021/06/30 09:59:09;;;;;;;11.05;1.20;;;35.80;38.70;;;;;;5059104;28;20040;-79
2021/06/30 10:01:38;;;;;;;6.97;1.55;;;35.80;39.10;;;;;;5047375;28;20035;-80
2021/06/30 10:04:04;;;;;;;8.25;1.70;;;35.80;39.60;;;;;;5061453;28;20049;-79
2021/06/30 10:06:31;;;;;;;6.63;1.63;;;36.00;40.00;;;;;;5048626;28;20112;-79
2021/06/30 10:08:59;;;;;;;12.70;1.65;;;36.00;40.10;;;;;;5044581;28;20052;-79
2021/06/30 10:11:26;;;;;;;10.70;1.30;;;35.90;40.10;;;;;;5050308;28;20028;-80
2021/06/30 10:13:53;;;;;;;6.97;1.60;;;35.60;39.60;;;;;;5048199;28;20106;-79
2021/06/30 10:16:20;;;;;;;7.10;1.98;;;35.40;39.70;;;;;;5050042;28;20032;-79
2021/06/30 10:18:49;;;;;;;5.43;1.98;;;35.40;40.30;;;;;;5049583;28;20123;-79
2021/06/30 10:21:17;;;;;;;9.80;1.95;;;35.20;41.80;;;;;;5049932;28;20033;-78
2021/06/30 10:23:43;;;;;;;16.92;1.83;;;35.20;41.20;;;;;;5069626;28;20028;-79
2021/06/30 10:26:08;;;;;;;6.15;1.52;;;35.10;41.90;;;;;;5069232;28;20041;-79
2021/06/30 10:28:35;;;;;;;4.95;1.10;;;34.80;41.00;;;;;;5069179;28;20028;-79
2021/06/30 10:31:01;;;;;;;10.10;2.05;;;34.70;41.10;;;;;;5050284;28;20425;-79
2021/06/30 10:33:32;;;;;;;9.32;1.30;;;34.80;41.40;;;;;;5068137;28;20032;-79
2021/06/30 10:35:58;;;;;;;8.13;1.85;;;34.70;41.80;;;;;;5068099;28;20166;-79
2021/06/30 10:38:53;;;;;;;4.03;1.30;;;34.60;42.20;;;;;;5067971;28;20105;-80
2021/06/30 10:41:52;;;;;;;2.78;1.33;;;34.80;42.40;;;;;;5049011;28;20031;-79
2021/06/30 10:44:18;;;;;;;4.63;1.33;;;34.80;42.20;;;;;;5046515;28;20476;-79
2021/06/30 10:46:44;;;;;;;12.43;2.05;;;34.70;41.20;;;;;;5049212;28;20041;-78
2021/06/30 10:49:21;;;;;;;9.80;2.63;;;34.50;40.70;;;;;;5049352;28;20025;-78
2021/06/30 10:52:02;;;;;;;11.60;1.40;;;34.30;42.10;;;;;;5049340;28;20091;-78
2021/06/30 10:54:44;;;;;;;5.75;1.23;;;34.10;42.60;;;;;;5049124;28;20107;-79
2021/06/30 10:57:23;;;;;;;8.23;1.75;;;34.00;42.50;;;;;;5049132;28;20028;-78
2021/06/30 10:59:58;;;;;;;6.82;1.05;;;33.90;43.30;;;;;;5053476;28;20048;-77
2021/06/30 11:02:25;;;;;;;8.10;1.60;;;33.80;43.30;;;;;;5048763;28;20031;-77
2021/06/30 11:04:51;;;;;;;7.40;1.05;;;33.70;42.70;;;;;;5050298;28;21165;-78
2021/06/30 11:07:33;;;;;;;9.85;1.20;;;33.40;43.30;;;;;;5040144;28;20044;-77
2021/06/30 11:10:19;;;;;;;3.35;1.42;;;33.40;43.50;;;;;;5048744;28;20028;-78
2021/06/30 11:12:55;;;;;;;7.00;1.20;;;33.30;44.20;;;;;;5049256;28;20110;-77
2021/06/30 11:15:39;;;;;;;11.23;1.30;;;33.40;43.50;;;;;;5068503;28;20058;-78
2021/06/30 11:18:11;;;;;;;3.55;0.75;;;33.40;43.80;;;;;;5050471;28;20469;-77
2021/06/30 11:20:46;;;;;;;7.15;0.80;;;33.40;43.90;;;;;;5049145;28;20028;-75
2021/06/30 11:23:26;;;;;;;3.58;0.77;;;33.30;43.40;;;;;;5048569;28;20025;-75
2021/06/30 11:25:54;;;;;;;5.07;1.77;;;33.30;43.10;;;;;;5031671;28;20037;-78
2021/06/30 11:28:34;;;;;;;4.60;1.77;;;33.20;43.30;;;;;;5050622;28;20067;-78
2021/06/30 11:31:26;;;;;;;5.78;0.93;;;33.20;43.70;;;;;;5048619;28;20021;-79
2021/06/30 11:34:19;;;;;;;5.65;1.23;;;33.20;43.70;;;;;;5044858;28;20045;-79
2021/06/30 11:36:44;;;;;;;9.27;1.00;;;33.20;43.90;;;;;;5030644;28;20033;-79
2021/06/30 11:39:14;;;;;;;7.10;1.17;;;33.30;43.60;;;;;;5047367;28;20082;-79
2021/06/30 11:41:52;;;;;;;6.50;1.02;;;33.30;43.60;;;;;;5030835;28;20025;-76
2021/06/30 11:44:20;;;;;;;6.20;1.10;;;33.40;41.50;;;;;;5030499;28;20493;-76
2021/06/30 11:46:50;;;;;;;4.93;0.90;;;33.50;42.80;;;;;;5059703;28;20041;-78
2021/06/30 11:49:20;;;;;;;3.58;0.93;;;33.50;41.90;;;;;;5048455;28;20547;-79
2021/06/30 11:52:06;;;;;;;11.45;1.27;;;33.40;41.60;;;;;;5046509;28;20507;-78
2021/06/30 11:54:31;;;;;;;;;;;33.50;40.20;;;;;;5026058;28;20165;-78
2021/06/30 11:56:57;;;;;;;;;;;33.50;40.80;;;;;;5029858;28;20024;-78
2021/06/30 11:59:25;;;;;;;12.30;1.63;;;33.60;41.60;;;;;;5062339;28;19927;-78
2021/06/30 12:01:52;;;;;;;31.10;1.92;;;33.60;41.30;;;;;;5049091;28;20123;-77
2021/06/30 12:04:22;;;;;;;7.05;0.95;;;33.70;41.70;;;;;;5049132;28;20408;-78
2021/06/30 12:06:53;;;;;;;6.07;0.95;;;33.70;40.50;;;;;;5062826;28;20094;-78
2021/06/30 12:09:24;;;;;;;3.92;0.80;;;33.60;41.00;;;;;;5058902;28;20035;-78
2021/06/30 12:11:54;;;;;;;8.23;0.80;;;33.70;40.50;;;;;;5026213;28;20068;-78
2021/06/30 12:14:25;;;;;;;8.02;1.25;;;33.70;40.90;;;;;;5047266;28;20037;-78
2021/06/30 12:17:01;;;;;;;5.90;0.90;;;33.70;41.40;;;;;;5029155;28;20047;-78
2021/06/30 12:19:39;;;;;;;6.28;1.10;;;33.70;41.40;;;;;;5029400;28;20533;-78
2021/06/30 12:22:24;;;;;;;5.45;1.35;;;33.70;41.60;;;;;;5046048;28;20413;-77
2021/06/30 12:24:52;;;;;;;4.10;0.85;;;33.80;40.70;;;;;;5045709;28;20088;-78
2021/06/30 12:27:18;;;;;;;5.20;1.38;;;33.60;40.40;;;;;;5027325;28;20043;-78
2021/06/30 12:29:44;;;;;;;9.50;1.27;;;33.50;41.10;;;;;;5047082;28;20033;-78
2021/06/30 12:32:13;;;;;;;3.97;1.08;;;33.60;40.40;;;;;;5029007;28;20056;-78
2021/06/30 12:34:40;;;;;;;5.65;1.50;;;33.60;40.00;;;;;;5045965;28;20041;-77
2021/06/30 12:37:06;;;;;;;7.97;0.90;;;33.70;40.30;;;;;;5047387;28;20044;-77
2021/06/30 12:39:34;;;;;;;11.32;2.05;;;33.70;40.10;;;;;;5032512;28;20106;-77
2021/06/30 12:42:02;;;;;;;5.80;0.85;;;33.70;40.50;;;;;;5046160;28;20607;-77
2021/06/30 12:44:30;;;;;;;2.72;0.80;;;33.60;41.60;;;;;;5033181;28;20033;-76
2021/06/30 12:47:12;;;;;;;5.20;1.25;;;33.70;40.90;;;;;;5032844;28;20136;-77
2021/06/30 12:49:40;;;;;;;7.90;0.93;;;33.80;38.90;;;;;;5050629;28;20083;-77